sensor_id;sensor_type;location;lat;lon;timestamp;P1;durP1;ratioP1;P2;durP2;ratioP2
21727;SDS011;11026;50.560;17.852;2024-02-21T00:02:04;22.92;;;7.10;;
21727;SDS011;11026;50.560;17.852;2024-02-21T00:04:31;25.02;;;8.07;;
21727;SDS011;11026;50.560;17.852;2024-02-21T00:06:59;18.67;;;7.00;;
21727;SDS011;11026;50.560;17.852;2024-02-21T00:11:56;21.80;;;7.15;;
21727;SDS011;11026;50.560;17.852;2024-02-21T00:14:25;19.45;;;8.02;;
21727;SDS011;11026;50.560;17.852;2024-02-21T00:16:52;16.10;;;6.75;;
21727;SDS011;11026;50.560;17.852;2024-02-21T00:19:19;18.95;;;9.27;;
21727;SDS011;11026;50.560;17.852;2024-02-21T00:21:47;18.17;;;7.13;;
21727;SDS011;11026;50.560;17.852;2024-02-21T00:24:16;21.52;;;7.78;;
21727;SDS011;11026;50.560;17.852;2024-02-21T00:26:44;19.40;;;7.25;;
21727;SDS011;11026;50.560;17.852;2024-02-21T00:29:11;19.38;;;7.80;;
21727;SDS011;11026;50.560;17.852;2024-02-21T00:31:38;20.88;;;8.82;;
21727;SDS011;11026;50.560;17.852;2024-02-21T00:39:08;23.35;;;8.77;;
21727;SDS011;11026;50.560;17.852;2024-02-21T00:41:35;22.95;;;8.45;;
21727;SDS011;11026;50.560;17.852;2024-02-21T00:44:02;19.73;;;8.30;;
21727;SDS011;11026;50.560;17.852;2024-02-21T00:46:29;18.23;;;7.85;;
21727;SDS011;11026;50.560;17.852;2024-02-21T00:48:56;15.50;;;7.80;;
21727;SDS011;11026;50.560;17.852;2024-02-21T00:51:25;23.25;;;8.27;;
21727;SDS011;11026;50.560;17.852;2024-02-21T00:53:53;19.23;;;7.38;;
21727;SDS011;11026;50.560;17.852;2024-02-21T00:56:22;19.90;;;7.03;;
21727;SDS011;11026;50.560;17.852;2024-02-21T01:01:22;18.80;;;6.47;;
21727;SDS011;11026;50.560;17.852;2024-02-21T01:03:50;17.15;;;6.35;;
21727;SDS011;11026;50.560;17.852;2024-02-21T01:06:20;18.02;;;7.47;;
21727;SDS011;11026;50.560;17.852;2024-02-21T01:08:47;17.20;;;7.88;;
21727;SDS011;11026;50.560;17.852;2024-02-21T01:11:14;16.23;;;7.25;;
21727;SDS011;11026;50.560;17.852;2024-02-21T01:13:42;19.85;;;7.78;;
21727;SDS011;11026;50.560;17.852;2024-02-21T01:16:09;18.35;;;7.90;;
21727;SDS011;11026;50.560;17.852;2024-02-21T01:18:37;19.27;;;7.45;;
21727;SDS011;11026;50.560;17.852;2024-02-21T01:21:06;19.67;;;7.45;;
21727;SDS011;11026;50.560;17.852;2024-02-21T01:23:37;20.80;;;8.13;;
21727;SDS011;11026;50.560;17.852;2024-02-21T01:26:04;21.70;;;8.23;;
21727;SDS011;11026;50.560;17.852;2024-02-21T01:28:34;22.55;;;8.10;;
21727;SDS011;11026;50.560;17.852;2024-02-21T01:31:02;15.00;;;7.32;;
21727;SDS011;11026;50.560;17.852;2024-02-21T01:33:32;20.23;;;7.97;;
21727;SDS011;11026;50.560;17.852;2024-02-21T01:36:02;18.48;;;8.18;;
21727;SDS011;11026;50.560;17.852;2024-02-21T01:38:29;18.63;;;8.20;;
21727;SDS011;11026;50.560;17.852;2024-02-21T01:40:56;19.00;;;8.25;;
21727;SDS011;11026;50.560;17.852;2024-02-21T01:43:24;27.58;;;8.80;;
21727;SDS011;11026;50.560;17.852;2024-02-21T01:45:55;16.70;;;8.23;;
21727;SDS011;11026;50.560;17.852;2024-02-21T01:48:24;23.38;;;8.45;;
21727;SDS011;11026;50.560;17.852;2024-02-21T01:50:53;25.17;;;8.95;;
21727;SDS011;11026;50.560;17.852;2024-02-21T01:53:25;18.95;;;8.90;;
21727;SDS011;11026;50.560;17.852;2024-02-21T01:55:56;19.17;;;8.55;;
21727;SDS011;11026;50.560;17.852;2024-02-21T01:58:23;20.45;;;9.18;;
21727;SDS011;11026;50.560;17.852;2024-02-21T02:00:51;20.88;;;8.27;;
21727;SDS011;11026;50.560;17.852;2024-02-21T02:03:19;18.33;;;7.90;;
21727;SDS011;11026;50.560;17.852;2024-02-21T02:05:47;18.98;;;8.95;;
21727;SDS011;11026;50.560;17.852;2024-02-21T02:08:15;16.83;;;8.68;;
21727;SDS011;11026;50.560;17.852;2024-02-21T02:10:44;23.40;;;9.15;;
21727;SDS011;11026;50.560;17.852;2024-02-21T02:13:14;19.67;;;8.55;;
21727;SDS011;11026;50.560;17.852;2024-02-21T02:15:48;21.63;;;7.95;;
21727;SDS011;11026;50.560;17.852;2024-02-21T02:18:17;16.75;;;7.93;;
21727;SDS011;11026;50.560;17.852;2024-02-21T02:20:47;19.35;;;8.32;;
21727;SDS011;11026;50.560;17.852;2024-02-21T02:23:24;15.68;;;8.65;;
21727;SDS011;11026;50.560;17.852;2024-02-21T02:25:53;22.02;;;8.50;;
21727;SDS011;11026;50.560;17.852;2024-02-21T02:28:21;21.65;;;9.23;;
21727;SDS011;11026;50.560;17.852;2024-02-21T02:30:50;19.20;;;9.27;;
21727;SDS011;11026;50.560;17.852;2024-02-21T02:33:17;20.90;;;8.52;;
21727;SDS011;11026;50.560;17.852;2024-02-21T02:38:19;16.65;;;8.02;;
21727;SDS011;11026;50.560;17.852;2024-02-21T02:40:46;18.00;;;8.52;;
21727;SDS011;11026;50.560;17.852;2024-02-21T02:43:13;16.70;;;8.40;;
21727;SDS011;11026;50.560;17.852;2024-02-21T02:45:40;19.33;;;8.18;;
21727;SDS011;11026;50.560;17.852;2024-02-21T02:48:09;19.77;;;7.85;;
21727;SDS011;11026;50.560;17.852;2024-02-21T02:50:36;19.90;;;8.48;;
21727;SDS011;11026;50.560;17.852;2024-02-21T02:53:04;20.67;;;8.45;;
21727;SDS011;11026;50.560;17.852;2024-02-21T02:55:31;25.90;;;8.75;;
21727;SDS011;11026;50.560;17.852;2024-02-21T02:57:59;15.55;;;7.53;;
21727;SDS011;11026;50.560;17.852;2024-02-21T03:00:27;16.30;;;8.90;;
21727;SDS011;11026;50.560;17.852;2024-02-21T03:02:54;24.23;;;9.82;;
21727;SDS011;11026;50.560;17.852;2024-02-21T03:05:22;20.27;;;8.30;;
21727;SDS011;11026;50.560;17.852;2024-02-21T03:07:51;20.73;;;8.50;;
21727;SDS011;11026;50.560;17.852;2024-02-21T03:10:18;20.25;;;8.00;;
21727;SDS011;11026;50.560;17.852;2024-02-21T03:12:46;20.17;;;8.52;;
21727;SDS011;11026;50.560;17.852;2024-02-21T03:17:43;17.73;;;10.00;;
21727;SDS011;11026;50.560;17.852;2024-02-21T03:20:10;16.38;;;7.93;;
21727;SDS011;11026;50.560;17.852;2024-02-21T03:22:39;19.00;;;8.88;;
21727;SDS011;11026;50.560;17.852;2024-02-21T03:25:08;18.02;;;7.80;;
21727;SDS011;11026;50.560;17.852;2024-02-21T03:27:38;16.48;;;8.00;;
21727;SDS011;11026;50.560;17.852;2024-02-21T03:30:06;17.00;;;8.30;;
21727;SDS011;11026;50.560;17.852;2024-02-21T03:32:33;17.35;;;7.90;;
21727;SDS011;11026;50.560;17.852;2024-02-21T03:35:01;14.90;;;7.93;;
21727;SDS011;11026;50.560;17.852;2024-02-21T03:37:29;17.17;;;7.90;;
21727;SDS011;11026;50.560;17.852;2024-02-21T03:42:27;20.85;;;9.07;;
21727;SDS011;11026;50.560;17.852;2024-02-21T03:44:56;16.35;;;7.93;;
21727;SDS011;11026;50.560;17.852;2024-02-21T03:47:23;18.17;;;8.13;;
21727;SDS011;11026;50.560;17.852;2024-02-21T03:49:50;15.73;;;8.70;;
21727;SDS011;11026;50.560;17.852;2024-02-21T03:52:18;19.27;;;8.52;;
21727;SDS011;11026;50.560;17.852;2024-02-21T03:57:15;16.13;;;8.50;;
21727;SDS011;11026;50.560;17.852;2024-02-21T03:59:42;15.75;;;8.07;;
21727;SDS011;11026;50.560;17.852;2024-02-21T04:02:10;17.75;;;8.70;;
21727;SDS011;11026;50.560;17.852;2024-02-21T04:04:42;18.25;;;8.57;;
21727;SDS011;11026;50.560;17.852;2024-02-21T04:07:15;17.23;;;7.97;;
21727;SDS011;11026;50.560;17.852;2024-02-21T04:09:43;18.75;;;8.38;;
21727;SDS011;11026;50.560;17.852;2024-02-21T04:12:11;17.33;;;8.95;;
21727;SDS011;11026;50.560;17.852;2024-02-21T04:14:40;20.63;;;9.23;;
21727;SDS011;11026;50.560;17.852;2024-02-21T04:17:11;17.63;;;9.52;;
21727;SDS011;11026;50.560;17.852;2024-02-21T04:19:38;17.42;;;8.55;;
21727;SDS011;11026;50.560;17.852;2024-02-21T04:22:06;17.30;;;8.55;;
21727;SDS011;11026;50.560;17.852;2024-02-21T04:27:04;25.50;;;8.55;;
21727;SDS011;11026;50.560;17.852;2024-02-21T04:29:32;16.67;;;8.23;;
21727;SDS011;11026;50.560;17.852;2024-02-21T04:32:03;18.00;;;9.93;;
21727;SDS011;11026;50.560;17.852;2024-02-21T04:34:31;17.67;;;8.48;;
21727;SDS011;11026;50.560;17.852;2024-02-21T04:36:58;22.02;;;8.93;;
21727;SDS011;11026;50.560;17.852;2024-02-21T04:39:25;15.60;;;8.18;;
21727;SDS011;11026;50.560;17.852;2024-02-21T04:41:52;24.33;;;9.43;;
21727;SDS011;11026;50.560;17.852;2024-02-21T04:44:20;20.58;;;9.13;;
21727;SDS011;11026;50.560;17.852;2024-02-21T04:46:49;18.88;;;9.45;;
21727;SDS011;11026;50.560;17.852;2024-02-21T04:49:16;22.02;;;9.50;;
21727;SDS011;11026;50.560;17.852;2024-02-21T04:51:44;19.13;;;9.05;;
21727;SDS011;11026;50.560;17.852;2024-02-21T04:54:13;19.08;;;8.90;;
21727;SDS011;11026;50.560;17.852;2024-02-21T04:56:40;18.27;;;9.18;;
21727;SDS011;11026;50.560;17.852;2024-02-21T04:59:07;19.58;;;9.50;;
21727;SDS011;11026;50.560;17.852;2024-02-21T05:01:35;21.20;;;10.60;;
21727;SDS011;11026;50.560;17.852;2024-02-21T05:04:03;20.10;;;10.13;;
21727;SDS011;11026;50.560;17.852;2024-02-21T05:06:32;23.80;;;10.52;;
21727;SDS011;11026;50.560;17.852;2024-02-21T05:08:59;21.85;;;10.48;;
21727;SDS011;11026;50.560;17.852;2024-02-21T05:11:26;18.92;;;10.27;;
21727;SDS011;11026;50.560;17.852;2024-02-21T05:13:55;17.90;;;10.07;;
21727;SDS011;11026;50.560;17.852;2024-02-21T05:16:23;19.33;;;10.02;;
21727;SDS011;11026;50.560;17.852;2024-02-21T05:18:50;20.83;;;10.27;;
21727;SDS011;11026;50.560;17.852;2024-02-21T05:21:18;19.42;;;10.15;;
21727;SDS011;11026;50.560;17.852;2024-02-21T05:23:47;18.63;;;9.88;;
21727;SDS011;11026;50.560;17.852;2024-02-21T05:26:35;18.33;;;8.77;;
21727;SDS011;11026;50.560;17.852;2024-02-21T05:29:03;16.38;;;8.70;;
21727;SDS011;11026;50.560;17.852;2024-02-21T05:31:42;15.45;;;9.30;;
21727;SDS011;11026;50.560;17.852;2024-02-21T05:34:19;16.52;;;8.95;;
21727;SDS011;11026;50.560;17.852;2024-02-21T05:36:49;15.95;;;8.93;;
21727;SDS011;11026;50.560;17.852;2024-02-21T05:41:50;16.63;;;8.88;;
21727;SDS011;11026;50.560;17.852;2024-02-21T05:44:18;15.95;;;8.98;;
21727;SDS011;11026;50.560;17.852;2024-02-21T05:46:45;18.33;;;8.52;;
21727;SDS011;11026;50.560;17.852;2024-02-21T05:49:15;22.90;;;8.82;;
21727;SDS011;11026;50.560;17.852;2024-02-21T05:51:42;16.33;;;8.57;;
21727;SDS011;11026;50.560;17.852;2024-02-21T05:54:12;17.67;;;8.90;;
21727;SDS011;11026;50.560;17.852;2024-02-21T05:56:43;15.52;;;8.98;;
21727;SDS011;11026;50.560;17.852;2024-02-21T05:59:12;15.15;;;8.55;;
21727;SDS011;11026;50.560;17.852;2024-02-21T06:01:41;17.35;;;9.70;;
21727;SDS011;11026;50.560;17.852;2024-02-21T06:04:08;18.40;;;8.95;;
21727;SDS011;11026;50.560;17.852;2024-02-21T06:06:36;15.15;;;8.77;;
21727;SDS011;11026;50.560;17.852;2024-02-21T06:09:03;16.73;;;8.60;;
21727;SDS011;11026;50.560;17.852;2024-02-21T06:11:32;15.35;;;8.32;;
21727;SDS011;11026;50.560;17.852;2024-02-21T06:16:29;16.45;;;8.32;;
21727;SDS011;11026;50.560;17.852;2024-02-21T06:18:57;15.43;;;7.50;;
21727;SDS011;11026;50.560;17.852;2024-02-21T06:21:28;14.73;;;7.80;;
21727;SDS011;11026;50.560;17.852;2024-02-21T06:23:55;12.73;;;7.60;;
21727;SDS011;11026;50.560;17.852;2024-02-21T06:28:54;15.15;;;7.88;;
21727;SDS011;11026;50.560;17.852;2024-02-21T06:31:22;14.20;;;7.82;;
21727;SDS011;11026;50.560;17.852;2024-02-21T06:33:49;20.92;;;8.07;;
21727;SDS011;11026;50.560;17.852;2024-02-21T06:36:17;13.27;;;7.70;;
21727;SDS011;11026;50.560;17.852;2024-02-21T06:38:45;14.65;;;7.13;;
21727;SDS011;11026;50.560;17.852;2024-02-21T06:41:18;15.52;;;7.90;;
21727;SDS011;11026;50.560;17.852;2024-02-21T06:43:52;16.90;;;8.50;;
21727;SDS011;11026;50.560;17.852;2024-02-21T06:46:22;16.48;;;7.68;;
21727;SDS011;11026;50.560;17.852;2024-02-21T06:48:56;15.98;;;7.65;;
21727;SDS011;11026;50.560;17.852;2024-02-21T06:51:24;15.88;;;7.88;;
21727;SDS011;11026;50.560;17.852;2024-02-21T06:53:52;14.05;;;8.02;;
21727;SDS011;11026;50.560;17.852;2024-02-21T06:56:19;17.15;;;9.07;;
21727;SDS011;11026;50.560;17.852;2024-02-21T06:58:48;18.10;;;8.70;;
21727;SDS011;11026;50.560;17.852;2024-02-21T07:01:15;15.05;;;7.93;;
21727;SDS011;11026;50.560;17.852;2024-02-21T07:06:14;14.85;;;8.60;;
21727;SDS011;11026;50.560;17.852;2024-02-21T07:08:41;14.75;;;8.30;;
21727;SDS011;11026;50.560;17.852;2024-02-21T07:11:08;15.30;;;8.10;;
21727;SDS011;11026;50.560;17.852;2024-02-21T07:13:36;16.33;;;8.10;;
21727;SDS011;11026;50.560;17.852;2024-02-21T07:16:03;15.25;;;7.80;;
21727;SDS011;11026;50.560;17.852;2024-02-21T07:18:31;15.95;;;8.50;;
21727;SDS011;11026;50.560;17.852;2024-02-21T07:20:59;12.30;;;7.75;;
21727;SDS011;11026;50.560;17.852;2024-02-21T07:23:26;15.35;;;8.95;;
21727;SDS011;11026;50.560;17.852;2024-02-21T07:25:53;15.70;;;8.02;;
21727;SDS011;11026;50.560;17.852;2024-02-21T07:30:51;12.45;;;7.75;;
21727;SDS011;11026;50.560;17.852;2024-02-21T07:33:18;15.30;;;7.88;;
21727;SDS011;11026;50.560;17.852;2024-02-21T07:35:45;17.70;;;7.57;;
21727;SDS011;11026;50.560;17.852;2024-02-21T07:38:13;20.92;;;8.55;;
21727;SDS011;11026;50.560;17.852;2024-02-21T07:40:43;19.73;;;8.45;;
21727;SDS011;11026;50.560;17.852;2024-02-21T07:43:12;15.82;;;8.75;;
21727;SDS011;11026;50.560;17.852;2024-02-21T07:45:40;14.95;;;7.30;;
21727;SDS011;11026;50.560;17.852;2024-02-21T07:48:07;13.57;;;8.00;;
21727;SDS011;11026;50.560;17.852;2024-02-21T07:50:35;14.63;;;7.90;;
21727;SDS011;11026;50.560;17.852;2024-02-21T07:53:02;15.00;;;7.10;;
21727;SDS011;11026;50.560;17.852;2024-02-21T07:55:29;15.00;;;7.25;;
21727;SDS011;11026;50.560;17.852;2024-02-21T07:57:57;14.68;;;7.22;;
21727;SDS011;11026;50.560;17.852;2024-02-21T08:00:24;12.82;;;6.63;;
21727;SDS011;11026;50.560;17.852;2024-02-21T08:02:50;14.57;;;7.38;;
21727;SDS011;11026;50.560;17.852;2024-02-21T08:05:17;15.13;;;7.03;;
21727;SDS011;11026;50.560;17.852;2024-02-21T08:07:46;14.10;;;7.38;;
21727;SDS011;11026;50.560;17.852;2024-02-21T08:10:15;11.48;;;7.00;;
21727;SDS011;11026;50.560;17.852;2024-02-21T08:12:42;14.48;;;6.90;;
21727;SDS011;11026;50.560;17.852;2024-02-21T08:15:11;15.23;;;6.95;;
21727;SDS011;11026;50.560;17.852;2024-02-21T08:17:39;14.20;;;7.82;;
21727;SDS011;11026;50.560;17.852;2024-02-21T08:20:07;15.70;;;6.68;;
21727;SDS011;11026;50.560;17.852;2024-02-21T08:22:37;15.40;;;7.30;;
21727;SDS011;11026;50.560;17.852;2024-02-21T08:25:06;15.65;;;7.05;;
21727;SDS011;11026;50.560;17.852;2024-02-21T08:27:33;13.80;;;6.82;;
21727;SDS011;11026;50.560;17.852;2024-02-21T08:30:01;11.20;;;7.43;;
21727;SDS011;11026;50.560;17.852;2024-02-21T08:32:29;13.70;;;7.05;;
21727;SDS011;11026;50.560;17.852;2024-02-21T08:37:28;12.90;;;6.63;;
21727;SDS011;11026;50.560;17.852;2024-02-21T08:42:40;13.27;;;6.80;;
21727;SDS011;11026;50.560;17.852;2024-02-21T08:45:07;13.27;;;6.80;;
21727;SDS011;11026;50.560;17.852;2024-02-21T08:47:36;12.57;;;6.38;;
21727;SDS011;11026;50.560;17.852;2024-02-21T08:50:09;10.93;;;6.05;;
21727;SDS011;11026;50.560;17.852;2024-02-21T08:52:52;16.15;;;6.45;;
21727;SDS011;11026;50.560;17.852;2024-02-21T08:55:20;10.90;;;6.15;;
21727;SDS011;11026;50.560;17.852;2024-02-21T08:57:47;17.17;;;7.05;;
21727;SDS011;11026;50.560;17.852;2024-02-21T09:00:15;13.85;;;7.55;;
21727;SDS011;11026;50.560;17.852;2024-02-21T09:02:42;18.50;;;6.82;;
21727;SDS011;11026;50.560;17.852;2024-02-21T09:05:11;13.10;;;6.22;;
21727;SDS011;11026;50.560;17.852;2024-02-21T09:07:38;15.38;;;6.38;;
21727;SDS011;11026;50.560;17.852;2024-02-21T09:10:08;19.20;;;7.10;;
21727;SDS011;11026;50.560;17.852;2024-02-21T09:12:35;13.45;;;6.40;;
21727;SDS011;11026;50.560;17.852;2024-02-21T09:15:02;14.20;;;6.63;;
21727;SDS011;11026;50.560;17.852;2024-02-21T09:17:30;15.65;;;6.25;;
21727;SDS011;11026;50.560;17.852;2024-02-21T09:19:59;14.60;;;6.90;;
21727;SDS011;11026;50.560;17.852;2024-02-21T09:22:29;14.60;;;7.07;;
21727;SDS011;11026;50.560;17.852;2024-02-21T09:24:58;13.65;;;6.65;;
21727;SDS011;11026;50.560;17.852;2024-02-21T09:29:56;13.07;;;6.70;;
21727;SDS011;11026;50.560;17.852;2024-02-21T09:32:25;15.55;;;6.80;;
21727;SDS011;11026;50.560;17.852;2024-02-21T09:34:53;14.23;;;6.38;;
21727;SDS011;11026;50.560;17.852;2024-02-21T09:37:26;13.07;;;6.85;;
21727;SDS011;11026;50.560;17.852;2024-02-21T09:39:53;14.32;;;8.55;;
21727;SDS011;11026;50.560;17.852;2024-02-21T09:44:57;14.48;;;7.03;;
21727;SDS011;11026;50.560;17.852;2024-02-21T09:50:07;13.02;;;7.20;;
21727;SDS011;11026;50.560;17.852;2024-02-21T09:52:37;16.25;;;8.13;;
21727;SDS011;11026;50.560;17.852;2024-02-21T09:55:05;14.98;;;7.53;;
21727;SDS011;11026;50.560;17.852;2024-02-21T09:57:35;13.68;;;7.20;;
21727;SDS011;11026;50.560;17.852;2024-02-21T10:00:04;14.77;;;7.63;;
21727;SDS011;11026;50.560;17.852;2024-02-21T10:02:34;14.52;;;7.80;;
21727;SDS011;11026;50.560;17.852;2024-02-21T10:05:02;17.48;;;8.30;;
21727;SDS011;11026;50.560;17.852;2024-02-21T10:07:31;15.80;;;7.85;;
21727;SDS011;11026;50.560;17.852;2024-02-21T10:10:05;16.40;;;8.02;;
21727;SDS011;11026;50.560;17.852;2024-02-21T10:12:32;17.77;;;8.15;;
21727;SDS011;11026;50.560;17.852;2024-02-21T10:15:03;15.02;;;8.00;;
21727;SDS011;11026;50.560;17.852;2024-02-21T10:17:34;14.70;;;7.38;;
21727;SDS011;11026;50.560;17.852;2024-02-21T10:20:09;22.48;;;8.57;;
21727;SDS011;11026;50.560;17.852;2024-02-21T10:22:37;14.90;;;7.88;;
21727;SDS011;11026;50.560;17.852;2024-02-21T10:25:09;17.67;;;8.50;;
21727;SDS011;11026;50.560;17.852;2024-02-21T10:27:38;15.65;;;8.93;;
21727;SDS011;11026;50.560;17.852;2024-02-21T10:32:50;17.50;;;8.57;;
21727;SDS011;11026;50.560;17.852;2024-02-21T10:35:32;19.15;;;8.48;;
21727;SDS011;11026;50.560;17.852;2024-02-21T10:38:01;19.15;;;8.32;;
21727;SDS011;11026;50.560;17.852;2024-02-21T10:40:29;15.82;;;8.50;;
21727;SDS011;11026;50.560;17.852;2024-02-21T10:42:58;14.80;;;7.88;;
21727;SDS011;11026;50.560;17.852;2024-02-21T10:45:32;17.30;;;8.70;;
21727;SDS011;11026;50.560;17.852;2024-02-21T10:48:11;16.65;;;8.55;;
21727;SDS011;11026;50.560;17.852;2024-02-21T10:53:36;16.38;;;8.43;;
21727;SDS011;11026;50.560;17.852;2024-02-21T10:58:58;19.10;;;9.02;;
21727;SDS011;11026;50.560;17.852;2024-02-21T11:01:28;18.60;;;8.75;;
21727;SDS011;11026;50.560;17.852;2024-02-21T11:03:59;14.60;;;8.95;;
21727;SDS011;11026;50.560;17.852;2024-02-21T11:06:35;17.02;;;8.20;;
21727;SDS011;11026;50.560;17.852;2024-02-21T11:09:04;16.60;;;9.05;;
21727;SDS011;11026;50.560;17.852;2024-02-21T11:16:39;17.52;;;8.90;;
21727;SDS011;11026;50.560;17.852;2024-02-21T11:19:08;18.85;;;9.15;;
21727;SDS011;11026;50.560;17.852;2024-02-21T11:21:50;15.70;;;9.07;;
21727;SDS011;11026;50.560;17.852;2024-02-21T11:27:08;13.57;;;7.93;;
21727;SDS011;11026;50.560;17.852;2024-02-21T11:32:22;16.98;;;8.43;;
21727;SDS011;11026;50.560;17.852;2024-02-21T11:34:58;19.48;;;9.38;;
21727;SDS011;11026;50.560;17.852;2024-02-21T11:37:35;13.75;;;8.40;;
21727;SDS011;11026;50.560;17.852;2024-02-21T11:40:07;20.48;;;8.82;;
21727;SDS011;11026;50.560;17.852;2024-02-21T11:42:39;16.85;;;8.73;;
21727;SDS011;11026;50.560;17.852;2024-02-21T11:45:08;14.85;;;9.02;;
21727;SDS011;11026;50.560;17.852;2024-02-21T11:47:38;16.40;;;9.18;;
21727;SDS011;11026;50.560;17.852;2024-02-21T11:50:10;16.35;;;9.10;;
21727;SDS011;11026;50.560;17.852;2024-02-21T11:52:40;15.13;;;9.05;;
21727;SDS011;11026;50.560;17.852;2024-02-21T11:55:08;15.27;;;8.32;;
21727;SDS011;11026;50.560;17.852;2024-02-21T11:57:37;15.93;;;9.80;;
21727;SDS011;11026;50.560;17.852;2024-02-21T12:00:15;16.52;;;9.40;;
21727;SDS011;11026;50.560;17.852;2024-02-21T12:02:43;18.27;;;9.75;;
21727;SDS011;11026;50.560;17.852;2024-02-21T12:05:13;16.13;;;9.80;;
21727;SDS011;11026;50.560;17.852;2024-02-21T12:07:42;19.73;;;10.13;;
21727;SDS011;11026;50.560;17.852;2024-02-21T12:10:11;16.40;;;9.07;;
21727;SDS011;11026;50.560;17.852;2024-02-21T12:12:39;19.17;;;10.05;;
21727;SDS011;11026;50.560;17.852;2024-02-21T12:15:06;18.27;;;9.15;;
21727;SDS011;11026;50.560;17.852;2024-02-21T12:17:39;18.42;;;8.88;;
21727;SDS011;11026;50.560;17.852;2024-02-21T12:20:07;19.23;;;9.63;;
21727;SDS011;11026;50.560;17.852;2024-02-21T12:22:37;14.32;;;9.35;;
21727;SDS011;11026;50.560;17.852;2024-02-21T12:25:26;15.10;;;8.93;;
21727;SDS011;11026;50.560;17.852;2024-02-21T12:27:53;18.55;;;9.05;;
21727;SDS011;11026;50.560;17.852;2024-02-21T12:30:20;15.23;;;9.27;;
21727;SDS011;11026;50.560;17.852;2024-02-21T12:32:49;15.48;;;8.55;;
21727;SDS011;11026;50.560;17.852;2024-02-21T12:35:16;15.80;;;8.63;;
21727;SDS011;11026;50.560;17.852;2024-02-21T12:37:45;15.65;;;8.10;;
21727;SDS011;11026;50.560;17.852;2024-02-21T12:40:12;16.23;;;8.35;;
21727;SDS011;11026;50.560;17.852;2024-02-21T12:42:43;14.55;;;7.72;;
21727;SDS011;11026;50.560;17.852;2024-02-21T12:45:12;14.85;;;7.63;;
21727;SDS011;11026;50.560;17.852;2024-02-21T12:50:13;12.05;;;7.60;;
21727;SDS011;11026;50.560;17.852;2024-02-21T12:52:42;14.10;;;7.32;;
21727;SDS011;11026;50.560;17.852;2024-02-21T12:55:09;10.52;;;6.35;;
21727;SDS011;11026;50.560;17.852;2024-02-21T12:57:37;11.75;;;7.25;;
21727;SDS011;11026;50.560;17.852;2024-02-21T13:00:05;14.38;;;6.45;;
21727;SDS011;11026;50.560;17.852;2024-02-21T13:02:35;11.57;;;6.32;;
21727;SDS011;11026;50.560;17.852;2024-02-21T13:05:04;13.30;;;6.50;;
21727;SDS011;11026;50.560;17.852;2024-02-21T13:07:32;11.70;;;6.55;;
21727;SDS011;11026;50.560;17.852;2024-02-21T13:10:00;9.77;;;5.43;;
21727;SDS011;11026;50.560;17.852;2024-02-21T13:12:28;11.75;;;6.32;;
21727;SDS011;11026;50.560;17.852;2024-02-21T13:14:57;13.48;;;5.75;;
21727;SDS011;11026;50.560;17.852;2024-02-21T13:17:25;11.77;;;6.20;;
21727;SDS011;11026;50.560;17.852;2024-02-21T13:20:00;10.57;;;5.78;;
21727;SDS011;11026;50.560;17.852;2024-02-21T13:22:27;11.05;;;5.75;;
21727;SDS011;11026;50.560;17.852;2024-02-21T13:27:26;10.05;;;5.57;;
21727;SDS011;11026;50.560;17.852;2024-02-21T13:29:53;9.95;;;5.90;;
21727;SDS011;11026;50.560;17.852;2024-02-21T13:32:19;12.05;;;6.70;;
21727;SDS011;11026;50.560;17.852;2024-02-21T13:34:46;12.57;;;6.22;;
21727;SDS011;11026;50.560;17.852;2024-02-21T13:37:14;11.30;;;6.35;;
21727;SDS011;11026;50.560;17.852;2024-02-21T13:39:41;12.73;;;5.97;;
21727;SDS011;11026;50.560;17.852;2024-02-21T13:42:08;12.38;;;5.78;;
21727;SDS011;11026;50.560;17.852;2024-02-21T13:44:36;11.10;;;6.07;;
21727;SDS011;11026;50.560;17.852;2024-02-21T13:47:04;9.75;;;5.07;;
21727;SDS011;11026;50.560;17.852;2024-02-21T13:52:02;7.90;;;4.32;;
21727;SDS011;11026;50.560;17.852;2024-02-21T13:54:30;10.02;;;4.82;;
21727;SDS011;11026;50.560;17.852;2024-02-21T13:56:58;9.05;;;4.50;;
21727;SDS011;11026;50.560;17.852;2024-02-21T13:59:25;10.10;;;4.15;;
21727;SDS011;11026;50.560;17.852;2024-02-21T14:04:24;9.82;;;4.63;;
21727;SDS011;11026;50.560;17.852;2024-02-21T14:09:22;11.88;;;5.10;;
21727;SDS011;11026;50.560;17.852;2024-02-21T14:14:19;7.70;;;4.45;;
21727;SDS011;11026;50.560;17.852;2024-02-21T14:16:46;10.55;;;5.35;;
21727;SDS011;11026;50.560;17.852;2024-02-21T14:19:16;10.70;;;5.43;;
21727;SDS011;11026;50.560;17.852;2024-02-21T14:21:45;10.38;;;5.53;;
21727;SDS011;11026;50.560;17.852;2024-02-21T14:24:14;8.02;;;5.13;;
21727;SDS011;11026;50.560;17.852;2024-02-21T14:26:41;8.32;;;4.68;;
21727;SDS011;11026;50.560;17.852;2024-02-21T14:29:08;7.57;;;4.95;;
21727;SDS011;11026;50.560;17.852;2024-02-21T14:31:36;8.82;;;4.80;;
21727;SDS011;11026;50.560;17.852;2024-02-21T14:34:04;9.73;;;5.30;;
21727;SDS011;11026;50.560;17.852;2024-02-21T14:36:32;9.75;;;5.03;;
21727;SDS011;11026;50.560;17.852;2024-02-21T14:38:59;7.50;;;4.47;;
21727;SDS011;11026;50.560;17.852;2024-02-21T14:41:26;7.72;;;4.97;;
21727;SDS011;11026;50.560;17.852;2024-02-21T14:43:56;8.80;;;5.00;;
21727;SDS011;11026;50.560;17.852;2024-02-21T14:46:30;10.25;;;5.00;;
21727;SDS011;11026;50.560;17.852;2024-02-21T14:48:57;6.88;;;4.70;;
21727;SDS011;11026;50.560;17.852;2024-02-21T14:51:25;8.20;;;4.88;;
21727;SDS011;11026;50.560;17.852;2024-02-21T14:53:52;10.20;;;5.40;;
21727;SDS011;11026;50.560;17.852;2024-02-21T14:56:20;11.68;;;5.50;;
21727;SDS011;11026;50.560;17.852;2024-02-21T14:58:47;11.40;;;5.35;;
21727;SDS011;11026;50.560;17.852;2024-02-21T15:01:19;9.82;;;5.63;;
21727;SDS011;11026;50.560;17.852;2024-02-21T15:03:47;8.10;;;5.63;;
21727;SDS011;11026;50.560;17.852;2024-02-21T15:06:15;8.60;;;5.72;;
21727;SDS011;11026;50.560;17.852;2024-02-21T15:13:43;13.75;;;5.68;;
21727;SDS011;11026;50.560;17.852;2024-02-21T15:16:10;10.45;;;6.15;;
21727;SDS011;11026;50.560;17.852;2024-02-21T15:18:39;11.13;;;6.25;;
21727;SDS011;11026;50.560;17.852;2024-02-21T15:21:07;10.85;;;5.68;;
21727;SDS011;11026;50.560;17.852;2024-02-21T15:23:37;11.63;;;5.88;;
21727;SDS011;11026;50.560;17.852;2024-02-21T15:26:05;10.88;;;5.60;;
21727;SDS011;11026;50.560;17.852;2024-02-21T15:28:32;10.57;;;5.68;;
21727;SDS011;11026;50.560;17.852;2024-02-21T15:31:00;9.57;;;5.53;;
21727;SDS011;11026;50.560;17.852;2024-02-21T15:33:27;9.65;;;5.65;;
21727;SDS011;11026;50.560;17.852;2024-02-21T15:35:54;9.85;;;5.40;;
21727;SDS011;11026;50.560;17.852;2024-02-21T15:38:21;8.98;;;5.75;;
21727;SDS011;11026;50.560;17.852;2024-02-21T15:40:49;9.90;;;5.40;;
21727;SDS011;11026;50.560;17.852;2024-02-21T15:43:16;8.75;;;5.88;;
21727;SDS011;11026;50.560;17.852;2024-02-21T15:45:44;9.35;;;5.50;;
21727;SDS011;11026;50.560;17.852;2024-02-21T15:48:12;9.57;;;5.45;;
21727;SDS011;11026;50.560;17.852;2024-02-21T15:50:40;8.93;;;5.43;;
21727;SDS011;11026;50.560;17.852;2024-02-21T15:53:07;8.15;;;5.25;;
21727;SDS011;11026;50.560;17.852;2024-02-21T15:55:34;7.72;;;4.60;;
21727;SDS011;11026;50.560;17.852;2024-02-21T15:58:02;9.23;;;5.75;;
21727;SDS011;11026;50.560;17.852;2024-02-21T16:00:31;9.63;;;4.90;;